createdAt,value
2019-05-07T00:02:02.759Z,63.48
2019-05-07T00:04:29.159Z,63.50
2019-05-07T00:06:55.154Z,64.69
2019-05-07T00:09:23.329Z,64.01
2019-05-07T00:11:49.456Z,63.62
2019-05-07T00:14:15.620Z,63.90
2019-05-07T00:16:43.165Z,64.66
2019-05-07T00:19:09.386Z,64.53
2019-05-07T00:21:36.536Z,65.15
2019-05-07T00:24:02.974Z,65.73
2019-05-07T00:26:29.299Z,65.42
2019-05-07T00:28:55.473Z,66.18
2019-05-07T00:31:23.261Z,65.69
2019-05-07T00:33:49.504Z,65.29
2019-05-07T00:36:15.619Z,65.54
2019-05-07T00:38:42.742Z,65.48
2019-05-07T00:41:09.101Z,64.88
2019-05-07T00:43:35.673Z,64.78
2019-05-07T00:46:02.872Z,64.71
2019-05-07T00:48:28.960Z,64.31
2019-05-07T00:50:55.236Z,64.58
2019-05-07T00:53:23.496Z,64.20
2019-05-07T00:55:49.279Z,63.87
2019-05-07T00:58:15.471Z,62.31
2019-05-07T01:00:42.663Z,63.37
2019-05-07T01:03:09.108Z,62.71
2019-05-07T01:05:35.079Z,63.64
2019-05-07T01:08:02.574Z,63.67
2019-05-07T01:10:30.068Z,63.42
2019-05-07T01:12:59.057Z,63.85
2019-05-07T01:15:30.742Z,63.36
2019-05-07T01:17:52.290Z,63.89
2019-05-07T01:20:18.553Z,64.08
2019-05-07T01:22:44.475Z,64.80
2019-05-07T01:25:12.695Z,64.61
2019-05-07T01:27:39.896Z,65.00
2019-05-07T01:30:06.356Z,65.33
2019-05-07T01:32:32.979Z,66.27
2019-05-07T01:34:59.323Z,65.11
2019-05-07T01:37:25.498Z,64.40
2019-05-07T01:39:52.935Z,65.02
2019-05-07T01:42:22.151Z,64.17
2019-05-07T01:44:48.302Z,64.97
2019-05-07T01:47:14.237Z,64.40
2019-05-07T01:49:42.188Z,65.22
2019-05-07T01:52:08.525Z,65.13
2019-05-07T01:54:34.465Z,66.03
2019-05-07T01:57:02.735Z,65.87
2019-05-07T01:59:28.558Z,65.96
2019-05-07T02:01:54.803Z,65.92
2019-05-07T02:04:22.391Z,66.52
2019-05-07T02:06:48.802Z,66.23
2019-05-07T02:09:14.839Z,66.56
2019-05-07T02:11:42.259Z,66.65
2019-05-07T02:14:08.552Z,66.15
2019-05-07T02:16:34.708Z,66.19
2019-05-07T02:19:02.186Z,66.10
2019-05-07T02:21:29.364Z,65.92
2019-05-07T02:23:55.559Z,66.40
2019-05-07T02:26:22.587Z,66.78
2019-05-07T02:28:48.789Z,67.23
2019-05-07T02:31:15.326Z,66.76
2019-05-07T02:33:43.362Z,66.71
2019-05-07T02:36:09.672Z,67.44
2019-05-07T02:38:35.749Z,67.27
2019-05-07T02:41:02.936Z,67.12
2019-05-07T02:43:29.099Z,67.33
2019-05-07T02:45:55.125Z,66.99
2019-05-07T02:48:23.746Z,67.13
2019-05-07T02:50:49.454Z,66.88
2019-05-07T02:53:18.010Z,67.59
2019-05-07T02:55:43.784Z,67.23
2019-05-07T02:58:09.833Z,67.89
2019-05-07T03:00:36.098Z,67.53
2019-05-07T03:03:04.072Z,66.68
2019-05-07T03:05:31.030Z,66.04
2019-05-07T03:07:57.191Z,66.71
2019-05-07T03:10:23.952Z,66.74
2019-05-07T03:12:53.362Z,66.27
2019-05-07T03:15:18.288Z,66.70
2019-05-07T03:17:44.467Z,66.71
2019-05-07T03:20:13.849Z,67.33
2019-05-07T03:22:39.187Z,66.63
2019-05-07T03:25:05.330Z,66.71
2019-05-07T03:27:34.195Z,67.69
2019-05-07T03:30:03.887Z,67.92
2019-05-07T03:32:28.644Z,67.87
2019-05-07T03:34:57.691Z,67.93
2019-05-07T03:37:23.601Z,67.80
2019-05-07T03:39:49.974Z,68.41
2019-05-07T03:42:16.156Z,68.44
2019-05-07T03:44:44.472Z,68.52
2019-05-07T03:47:10.067Z,68.40
2019-05-07T03:49:36.123Z,68.43
2019-05-07T03:52:04.255Z,67.65
2019-05-07T03:54:30.017Z,67.68
2019-05-07T03:56:56.080Z,67.72
2019-05-07T03:59:23.080Z,67.34
2019-05-07T04:01:49.472Z,67.56
2019-05-07T04:04:15.440Z,67.68
2019-05-07T04:06:43.405Z,67.75
2019-05-07T04:09:09.313Z,67.86
2019-05-07T04:11:35.398Z,68.07
2019-05-07T04:14:02.725Z,68.50
2019-05-07T04:16:33.016Z,68.54
2019-05-07T04:18:57.931Z,69.07
2019-05-07T04:21:24.016Z,69.16
2019-05-07T04:23:49.965Z,68.64
2019-05-07T04:26:16.080Z,69.21
2019-05-07T04:28:43.564Z,69.35
2019-05-07T04:31:09.944Z,69.29
2019-05-07T04:33:36.209Z,68.56
2019-05-07T04:36:02.988Z,68.77
2019-05-07T04:38:29.609Z,68.77
2019-05-07T04:40:55.703Z,70.04
2019-05-07T04:43:23.278Z,70.17
2019-05-07T04:45:49.801Z,70.39
2019-05-07T04:48:15.881Z,69.87
2019-05-07T04:50:44.317Z,70.29
2019-05-07T04:53:09.958Z,70.00
2019-05-07T04:55:36.014Z,69.64
2019-05-07T04:58:08.286Z,69.95
2019-05-07T05:00:33.604Z,70.29
2019-05-07T05:02:59.222Z,69.49
2019-05-07T05:05:26.350Z,69.23
2019-05-07T05:07:53.405Z,69.06
2019-05-07T05:10:19.577Z,68.59
2019-05-07T05:12:45.630Z,68.29
2019-05-07T05:15:12.756Z,68.96
2019-05-07T05:17:48.043Z,68.79
2019-05-07T05:20:07.041Z,68.51
2019-05-07T05:22:33.049Z,68.29
2019-05-07T05:24:58.990Z,69.02
2019-05-07T05:27:24.987Z,69.18
2019-05-07T05:29:52.056Z,69.53
2019-05-07T05:32:18.194Z,69.26
2019-05-07T05:34:44.318Z,69.28
2019-05-07T05:37:11.952Z,68.98
2019-05-07T05:39:38.145Z,69.57
2019-05-07T05:42:04.172Z,69.49
2019-05-07T05:44:32.009Z,69.06
2019-05-07T05:46:58.382Z,69.16
2019-05-07T05:49:24.324Z,69.71
2019-05-07T05:51:52.395Z,69.84
2019-05-07T05:54:18.610Z,69.41
2019-05-07T05:56:44.751Z,69.97
2019-05-07T05:59:24.176Z,68.37
2019-05-07T06:01:44.150Z,68.33
2019-05-07T06:04:12.336Z,69.01
2019-05-07T06:06:38.549Z,68.48
2019-05-07T06:09:06.625Z,67.52
2019-05-07T06:11:32.850Z,66.93
2019-05-07T06:13:59.178Z,66.46
2019-05-07T06:16:25.303Z,66.50
2019-05-07T06:18:52.546Z,65.54
2019-05-07T06:21:18.788Z,65.89
2019-05-07T06:23:45.114Z,65.92
2019-05-07T06:26:12.698Z,65.01
2019-05-07T06:28:38.992Z,65.70
2019-05-07T06:31:05.193Z,65.52
2019-05-07T06:33:32.450Z,64.21
2019-05-07T06:35:58.781Z,63.21
2019-05-07T06:38:24.790Z,63.09
2019-05-07T06:40:51.967Z,63.20
2019-05-07T06:43:18.039Z,62.76
2019-05-07T06:45:44.003Z,63.13
2019-05-07T06:48:12.479Z,62.96
2019-05-07T06:50:38.229Z,62.46
2019-05-07T06:53:04.188Z,61.32
2019-05-07T06:55:32.362Z,61.05
2019-05-07T06:57:58.829Z,59.92
2019-05-07T07:00:25.546Z,58.95
2019-05-07T07:02:52.522Z,57.79
2019-05-07T07:05:23.437Z,57.40
2019-05-07T07:07:47.687Z,57.48
2019-05-07T07:10:14.050Z,58.39
2019-05-07T07:12:41.889Z,57.64
2019-05-07T07:15:09.107Z,58.49
2019-05-07T07:17:35.257Z,58.85
2019-05-07T07:20:02.397Z,58.50
2019-05-07T07:22:28.534Z,57.71
2019-05-07T07:24:54.603Z,57.64
2019-05-07T07:27:22.698Z,57.36
2019-05-07T07:29:48.681Z,56.65
2019-05-07T07:32:14.685Z,56.49
2019-05-07T07:34:42.651Z,55.02
2019-05-07T07:37:12.838Z,55.06
2019-05-07T07:39:36.789Z,55.42
2019-05-07T07:42:03.104Z,56.63
2019-05-07T07:44:29.089Z,54.74
2019-05-07T07:46:55.085Z,54.44
2019-05-07T07:49:22.207Z,53.57
2019-05-07T07:51:48.521Z,53.89
2019-05-07T07:54:14.442Z,51.93
2019-05-07T07:56:50.018Z,51.22
2019-05-07T07:59:08.435Z,52.00
2019-05-07T08:01:34.684Z,51.55
2019-05-07T08:04:02.815Z,52.06
2019-05-07T08:06:28.804Z,53.58
2019-05-07T08:08:55.322Z,53.30
2019-05-07T08:11:22.037Z,51.88
2019-05-07T08:13:48.227Z,51.59
2019-05-07T08:16:14.374Z,51.72
2019-05-07T08:18:40.509Z,51.76
2019-05-07T08:21:08.052Z,51.06
2019-05-07T08:23:34.297Z,49.41
2019-05-07T08:26:02.415Z,50.02
2019-05-07T08:28:28.485Z,49.69
2019-05-07T08:30:54.462Z,50.20
2019-05-07T08:33:22.392Z,51.45
2019-05-07T08:35:48.593Z,51.00
2019-05-07T08:38:14.582Z,51.31
2019-05-07T08:40:41.854Z,51.68
2019-05-07T08:43:08.064Z,51.03
2019-05-07T08:45:34.426Z,51.39
2019-05-07T08:48:02.052Z,51.93
2019-05-07T08:50:28.214Z,50.82
2019-05-07T08:52:54.163Z,51.14
2019-05-07T08:55:21.792Z,51.99
2019-05-07T08:57:48.051Z,50.43
2019-05-07T09:00:15.238Z,52.93
2019-05-07T09:02:42.091Z,50.85
2019-05-07T09:05:09.307Z,50.25
2019-05-07T09:07:35.537Z,49.62
2019-05-07T09:10:02.805Z,48.10
2019-05-07T09:12:29.068Z,49.33
2019-05-07T09:14:55.064Z,47.11
2019-05-07T09:17:23.012Z,46.87
2019-05-07T09:19:52.237Z,47.98
2019-05-07T09:22:17.074Z,44.78
2019-05-07T09:24:44.990Z,42.43
2019-05-07T09:27:12.167Z,46.87
2019-05-07T09:29:38.556Z,46.59
2019-05-07T09:32:04.751Z,46.59
2019-05-07T09:34:32.714Z,45.76
2019-05-07T09:36:58.850Z,45.47
2019-05-07T09:39:26.134Z,46.84
2019-05-07T09:41:52.646Z,46.84
2019-05-07T09:44:18.850Z,48.90
2019-05-07T09:46:46.727Z,48.36
2019-05-07T09:49:13.107Z,49.20
2019-05-07T09:51:39.273Z,49.01
2019-05-07T09:54:05.390Z,48.14
2019-05-07T09:56:31.977Z,50.75
2019-05-07T09:58:58.481Z,48.47
2019-05-07T10:01:24.921Z,49.94
2019-05-07T10:03:51.833Z,51.02
2019-05-07T10:06:18.223Z,52.64
2019-05-07T10:08:44.411Z,52.23
2019-05-07T10:11:12.097Z,50.85
2019-05-07T10:13:39.626Z,49.20
2019-05-07T10:16:07.713Z,50.34
2019-05-07T10:18:34.225Z,50.61
2019-05-07T10:21:02.375Z,49.92
2019-05-07T10:23:28.610Z,50.19
2019-05-07T10:25:55.036Z,49.62
2019-05-07T10:28:22.735Z,49.21
2019-05-07T10:30:49.251Z,49.66
2019-05-07T10:33:15.525Z,49.08
2019-05-07T10:35:43.477Z,48.55
2019-05-07T10:38:09.830Z,48.67
2019-05-07T10:40:36.011Z,47.52
2019-05-07T10:43:02.477Z,48.22
2019-05-07T10:45:28.915Z,47.45
2019-05-07T10:47:55.205Z,48.15
2019-05-07T10:50:33.072Z,48.87
2019-05-07T10:52:49.469Z,47.93
2019-05-07T10:55:15.851Z,48.28
2019-05-07T10:57:42.342Z,47.73
2019-05-07T11:00:09.701Z,45.88
2019-05-07T11:02:39.333Z,47.65
2019-05-07T11:05:06.852Z,47.71
2019-05-07T11:07:32.922Z,49.28
2019-05-07T11:09:58.978Z,47.15
2019-05-07T11:12:25.116Z,46.33
2019-05-07T11:14:51.679Z,45.12
2019-05-07T11:17:17.749Z,47.07
2019-05-07T11:19:43.897Z,46.09
2019-05-07T11:22:11.636Z,46.09
2019-05-07T11:24:38.092Z,46.21
2019-05-07T11:27:04.239Z,46.17
2019-05-07T11:29:33.062Z,46.34
2019-05-07T11:31:59.255Z,46.72
2019-05-07T11:34:25.340Z,46.72
2019-05-07T11:36:52.593Z,46.36
2019-05-07T11:39:18.827Z,45.20
2019-05-07T11:41:44.882Z,46.38
2019-05-07T11:44:12.432Z,46.01
2019-05-07T11:46:38.569Z,46.16
2019-05-07T11:49:04.721Z,45.54
2019-05-07T11:51:32.901Z,46.18
2019-05-07T11:53:58.845Z,46.18
2019-05-07T11:56:24.877Z,46.80
2019-05-07T11:58:54.710Z,46.75
2019-05-07T12:01:22.372Z,46.73
2019-05-07T12:03:47.906Z,45.71
2019-05-07T12:06:15.253Z,44.94
2019-05-07T12:08:49.719Z,45.45
2019-05-07T12:11:09.320Z,45.15
2019-05-07T12:13:35.357Z,44.67
2019-05-07T12:16:03.019Z,46.19
2019-05-07T12:18:29.330Z,44.75
2019-05-07T12:20:55.350Z,45.57
2019-05-07T12:23:22.630Z,45.90
2019-05-07T12:25:49.231Z,45.85
2019-05-07T12:28:15.173Z,43.46
2019-05-07T12:30:42.839Z,44.05
2019-05-07T12:33:09.087Z,45.33
2019-05-07T12:35:36.185Z,44.75
2019-05-07T12:38:02.551Z,41.92
2019-05-07T12:40:28.739Z,43.45
2019-05-07T12:42:54.847Z,43.06
2019-05-07T12:45:22.827Z,43.83
2019-05-07T12:47:48.963Z,44.16
2019-05-07T12:50:15.090Z,43.17
2019-05-07T12:52:42.450Z,43.51
2019-05-07T12:55:09.399Z,43.51
2019-05-07T12:57:35.709Z,44.28
2019-05-07T13:00:04.842Z,44.47
2019-05-07T13:02:38.003Z,45.49
2019-05-07T13:04:59.254Z,45.49
2019-05-07T13:07:28.437Z,45.65
2019-05-07T13:09:54.536Z,45.66
2019-05-07T13:12:21.752Z,46.04
2019-05-07T13:14:47.910Z,46.01
2019-05-07T13:17:13.975Z,46.18
2019-05-07T13:19:41.883Z,46.52
2019-05-07T13:22:08.374Z,47.45
2019-05-07T13:24:34.457Z,48.39
2019-05-07T13:27:00.510Z,48.86
2019-05-07T13:29:26.628Z,48.32
2019-05-07T13:31:54.245Z,48.20
2019-05-07T13:34:22.780Z,47.39
2019-05-07T13:36:51.656Z,47.49
2019-05-07T13:39:18.765Z,48.15
2019-05-07T13:41:44.837Z,46.64
2019-05-07T13:44:12.339Z,47.50
2019-05-07T13:46:39.249Z,46.62
2019-05-07T13:49:05.636Z,44.11
2019-05-07T13:51:33.780Z,44.82
2019-05-07T13:54:02.103Z,43.51
2019-05-07T13:56:28.506Z,44.79
2019-05-07T13:58:56.127Z,44.04
2019-05-07T14:01:22.970Z,42.49
2019-05-07T14:03:50.209Z,42.49
2019-05-07T14:06:16.689Z,43.26
2019-05-07T14:08:43.124Z,43.26
2019-05-07T14:11:09.499Z,42.48
2019-05-07T14:13:35.967Z,44.28
2019-05-07T14:16:02.646Z,43.16
2019-05-07T14:18:29.920Z,43.40
2019-05-07T14:20:57.037Z,43.28
2019-05-07T14:23:23.043Z,43.31
2019-05-07T14:25:49.109Z,42.56
2019-05-07T14:28:15.154Z,44.33
2019-05-07T14:30:42.087Z,43.10
2019-05-07T14:33:08.254Z,41.21
2019-05-07T14:35:34.613Z,41.21
2019-05-07T14:38:00.882Z,42.28
2019-05-07T14:40:27.067Z,42.25
2019-05-07T14:42:54.187Z,43.44
2019-05-07T14:45:23.983Z,42.12
2019-05-07T14:47:52.248Z,41.88
2019-05-07T14:50:19.922Z,40.00
2019-05-07T14:52:46.280Z,40.00
2019-05-07T14:55:13.036Z,42.53
2019-05-07T14:57:39.513Z,42.82
2019-05-07T15:00:06.444Z,43.26
2019-05-07T15:02:33.962Z,42.06
2019-05-07T15:05:02.656Z,40.96
2019-05-07T15:07:28.362Z,41.79
2019-05-07T15:09:55.350Z,41.28
2019-05-07T15:12:23.338Z,40.48
2019-05-07T15:14:49.573Z,41.65
2019-05-07T15:17:15.612Z,41.34
2019-05-07T15:19:42.761Z,41.36
2019-05-07T15:22:09.002Z,41.61
2019-05-07T15:24:35.169Z,40.47
2019-05-07T15:27:02.179Z,42.01
2019-05-07T15:29:28.546Z,42.74
2019-05-07T15:31:54.605Z,43.00
2019-05-07T15:34:22.146Z,42.55
2019-05-07T15:36:48.542Z,43.18
2019-05-07T15:39:14.683Z,43.24
2019-05-07T15:41:42.704Z,41.62
2019-05-07T15:44:08.813Z,42.65
2019-05-07T15:46:34.845Z,42.67
2019-05-07T15:49:01.846Z,43.39
2019-05-07T15:51:28.139Z,42.41
2019-05-07T15:53:54.206Z,41.32
2019-05-07T15:56:21.920Z,41.47
2019-05-07T15:58:48.188Z,40.08
2019-05-07T16:01:14.181Z,40.38
2019-05-07T16:03:40.236Z,42.01
2019-05-07T16:06:07.127Z,43.17
2019-05-07T16:08:33.417Z,41.99
2019-05-07T16:11:01.552Z,41.79
2019-05-07T16:13:27.458Z,42.67
2019-05-07T16:15:53.438Z,42.92
2019-05-07T16:18:23.662Z,42.14
2019-05-07T16:20:48.399Z,42.10
2019-05-07T16:23:18.021Z,42.11
2019-05-07T16:25:42.489Z,41.69
2019-05-07T16:28:08.452Z,42.74
2019-05-07T16:30:34.449Z,41.79
2019-05-07T16:33:02.121Z,43.71
2019-05-07T16:35:29.144Z,43.31
2019-05-07T16:37:55.618Z,41.11
2019-05-07T16:40:22.994Z,41.25
2019-05-07T16:42:49.393Z,41.64
2019-05-07T16:45:16.729Z,42.42
2019-05-07T16:47:43.104Z,42.34
2019-05-07T16:50:12.942Z,42.91
2019-05-07T16:52:39.220Z,43.46
2019-05-07T16:55:06.615Z,44.06
2019-05-07T16:57:33.710Z,44.31
2019-05-07T16:59:59.818Z,44.31
2019-05-07T17:02:25.920Z,43.91
2019-05-07T17:04:52.053Z,43.91
2019-05-07T17:07:18.228Z,44.74
2019-05-07T17:09:44.318Z,45.23
2019-05-07T17:12:10.513Z,45.65
2019-05-07T17:14:36.599Z,45.37
2019-05-07T17:17:02.870Z,45.42
2019-05-07T17:19:31.957Z,45.64
2019-05-07T17:21:58.147Z,46.52
2019-05-07T17:24:24.488Z,46.85
2019-05-07T17:26:51.757Z,46.84
2019-05-07T17:29:18.004Z,46.49
2019-05-07T17:31:44.094Z,46.45
2019-05-07T17:34:11.783Z,47.10
2019-05-07T17:36:38.290Z,46.90
2019-05-07T17:39:05.667Z,47.44
2019-05-07T17:41:33.508Z,50.06
2019-05-07T17:43:59.700Z,57.68
2019-05-07T17:46:25.982Z,58.62
2019-05-07T17:48:52.567Z,58.92
2019-05-07T17:51:21.584Z,56.50
2019-05-07T17:53:57.655Z,56.08
2019-05-07T17:56:15.681Z,56.04
2019-05-07T17:58:42.667Z,55.70
2019-05-07T18:01:09.997Z,55.78
2019-05-07T18:03:36.226Z,56.22
2019-05-07T18:06:03.055Z,56.22
2019-05-07T18:08:29.332Z,56.39
2019-05-07T18:10:56.419Z,56.58
2019-05-07T18:13:22.480Z,57.51
2019-05-07T18:15:48.705Z,58.39
2019-05-07T18:18:14.810Z,59.09
2019-05-07T18:20:42.261Z,59.50
2019-05-07T18:23:13.331Z,59.57
2019-05-07T18:25:37.682Z,60.28
2019-05-07T18:28:03.979Z,60.36
2019-05-07T18:30:30.109Z,60.94
2019-05-07T18:32:56.157Z,61.23
2019-05-07T18:35:23.100Z,61.42
2019-05-07T18:37:52.273Z,61.53
2019-05-07T18:40:20.516Z,61.66
2019-05-07T18:42:46.602Z,62.25
2019-05-07T18:45:12.942Z,62.59
2019-05-07T18:47:39.077Z,62.93
2019-05-07T18:50:05.196Z,63.02
2019-05-07T18:52:31.985Z,63.53
2019-05-07T18:54:58.154Z,64.92
2019-05-07T18:57:24.114Z,65.24
2019-05-07T18:59:50.081Z,65.82
2019-05-07T19:02:16.164Z,65.40
2019-05-07T19:04:42.337Z,65.32
2019-05-07T19:07:08.423Z,65.18
2019-05-07T19:09:34.599Z,65.69
2019-05-07T19:12:00.757Z,66.05
2019-05-07T19:14:26.816Z,67.29
2019-05-07T19:16:52.955Z,67.47
2019-05-07T19:19:22.173Z,67.56
2019-05-07T19:21:48.093Z,67.40
2019-05-07T19:24:14.263Z,68.42
2019-05-07T19:26:42.102Z,68.39
2019-05-07T19:29:08.191Z,68.19
2019-05-07T19:31:35.414Z,68.25
2019-05-07T19:34:04.745Z,67.91
2019-05-07T19:36:32.181Z,68.48
2019-05-07T19:38:58.218Z,68.46
2019-05-07T19:41:25.574Z,68.60
2019-05-07T19:43:52.768Z,68.39
2019-05-07T19:46:18.923Z,68.21
2019-05-07T19:48:46.533Z,68.41
2019-05-07T19:51:12.551Z,68.70
2019-05-07T19:53:38.752Z,67.86
2019-05-07T19:56:04.959Z,67.71
2019-05-07T19:58:32.701Z,68.93
2019-05-07T20:00:59.197Z,69.15
2019-05-07T20:03:25.267Z,69.27
2019-05-07T20:05:52.505Z,69.36
2019-05-07T20:08:21.033Z,69.29
2019-05-07T20:10:47.153Z,69.43
2019-05-07T20:13:13.525Z,70.17
2019-05-07T20:15:39.583Z,70.32
2019-05-07T20:18:05.579Z,70.57
2019-05-07T20:20:33.160Z,70.62
2019-05-07T20:23:02.431Z,71.57
2019-05-07T20:25:28.527Z,71.40
2019-05-07T20:27:54.652Z,71.89
2019-05-07T20:30:22.742Z,72.28
2019-05-07T20:32:48.524Z,71.76
2019-05-07T20:35:14.721Z,71.20
2019-05-07T20:37:41.966Z,70.89
2019-05-07T20:40:08.610Z,71.42
2019-05-07T20:42:34.792Z,71.86
2019-05-07T20:45:02.989Z,71.78
2019-05-07T20:47:28.966Z,71.88
2019-05-07T20:49:56.080Z,72.01
2019-05-07T20:52:23.169Z,72.16
2019-05-07T20:54:49.186Z,72.22
2019-05-07T20:57:15.179Z,72.59
2019-05-07T20:59:43.186Z,72.14
2019-05-07T21:02:09.197Z,72.29
2019-05-07T21:04:35.722Z,72.27
2019-05-07T21:07:02.181Z,71.98
2019-05-07T21:09:32.613Z,71.85
2019-05-07T21:11:58.285Z,72.03
2019-05-07T21:14:25.966Z,71.60
2019-05-07T21:16:52.006Z,71.66
2019-05-07T21:19:18.022Z,71.75
2019-05-07T21:21:44.044Z,71.58
2019-05-07T21:24:13.019Z,70.64
2019-05-07T21:26:39.446Z,70.80
2019-05-07T21:29:05.592Z,70.85
2019-05-07T21:31:33.446Z,71.25
2019-05-07T21:33:59.681Z,71.15
2019-05-07T21:36:25.665Z,71.55
2019-05-07T21:38:52.006Z,72.09
2019-05-07T21:41:19.241Z,72.77
2019-05-07T21:43:46.208Z,72.41
2019-05-07T21:46:12.969Z,72.83
2019-05-07T21:48:39.190Z,73.13
2019-05-07T21:51:06.309Z,72.96
2019-05-07T21:53:32.529Z,73.21
2019-05-07T21:56:01.788Z,73.23
2019-05-07T21:58:26.642Z,72.33
2019-05-07T22:00:54.447Z,72.26
2019-05-07T22:03:20.538Z,72.23
2019-05-07T22:05:46.747Z,71.96
2019-05-07T22:08:12.826Z,72.18
2019-05-07T22:10:38.891Z,71.56
2019-05-07T22:13:04.922Z,72.02
2019-05-07T22:15:31.907Z,72.70
2019-05-07T22:17:58.028Z,72.62
2019-05-07T22:20:24.110Z,72.50
2019-05-07T22:22:52.081Z,72.87
2019-05-07T22:25:19.079Z,72.87
2019-05-07T22:27:47.105Z,72.93
2019-05-07T22:30:13.249Z,73.22
2019-05-07T22:32:39.319Z,73.57
2019-05-07T22:35:05.775Z,74.19
2019-05-07T22:37:33.737Z,73.92
2019-05-07T22:40:18.027Z,73.53
2019-05-07T22:42:51.691Z,73.86
2019-05-07T22:45:18.774Z,74.18
2019-05-07T22:47:45.055Z,74.48
2019-05-07T22:50:11.978Z,75.11
2019-05-07T22:52:39.267Z,75.13
2019-05-07T22:55:08.525Z,75.02
2019-05-07T22:57:34.622Z,74.94
2019-05-07T23:00:06.334Z,74.83
2019-05-07T23:02:35.471Z,75.18
2019-05-07T23:05:04.694Z,75.26
2019-05-07T23:07:34.822Z,75.72
2019-05-07T23:10:03.030Z,74.88
2019-05-07T23:12:29.112Z,75.23
2019-05-07T23:14:57.123Z,75.75
2019-05-07T23:17:28.197Z,75.72
2019-05-07T23:20:04.926Z,75.83
2019-05-07T23:22:39.013Z,76.82
2019-05-07T23:25:12.458Z,77.08
2019-05-07T23:27:43.448Z,77.02
2019-05-07T23:30:12.480Z,76.46
2019-05-07T23:32:38.777Z,75.80
2019-05-07T23:35:12.938Z,75.17
2019-05-07T23:37:39.013Z,75.21
2019-05-07T23:40:05.668Z,75.56
2019-05-07T23:42:31.733Z,75.54
2019-05-07T23:44:57.824Z,75.49
2019-05-07T23:47:23.820Z,75.36
2019-05-07T23:49:52.235Z,75.62
2019-05-07T23:52:17.879Z,75.64
2019-05-07T23:54:43.843Z,75.68
2019-05-07T23:57:14.910Z,76.29
2019-05-07T23:59:38.057Z,76.02
